sensor_id;sensor_type;location;lat;lon;timestamp;pressure;altitude;pressure_sealevel;temperature;humidity
35676;BME280;21790;42.668;23.298;2022-11-12T00:01:09;96034.69;;;15.75;50.99
35676;BME280;21790;42.668;23.298;2022-11-12T00:03:34;96024.44;;;15.72;50.67
35676;BME280;21790;42.668;23.298;2022-11-12T00:06:00;96024.31;;;15.84;50.19
35676;BME280;21790;42.668;23.298;2022-11-12T00:08:25;96023.22;;;15.73;50.21
35676;BME280;21790;42.668;23.298;2022-11-12T00:10:50;96022.59;;;15.60;50.75
35676;BME280;21790;42.668;23.298;2022-11-12T00:13:16;96014.84;;;15.73;50.39
35676;BME280;21790;42.668;23.298;2022-11-12T00:15:41;96025.88;;;15.76;50.05
35676;BME280;21790;42.668;23.298;2022-11-12T00:18:07;96009.28;;;15.64;50.21
35676;BME280;21790;42.668;23.298;2022-11-12T00:20:32;96010.81;;;15.56;50.43
35676;BME280;21790;42.668;23.298;2022-11-12T00:22:57;96010.63;;;15.50;51.07
35676;BME280;21790;42.668;23.298;2022-11-12T00:25:23;96021.91;;;15.37;51.30
35676;BME280;21790;42.668;23.298;2022-11-12T00:27:48;96025.59;;;15.25;51.47
35676;BME280;21790;42.668;23.298;2022-11-12T00:30:14;96023.94;;;15.46;50.59
35676;BME280;21790;42.668;23.298;2022-11-12T00:32:39;96029.34;;;15.49;50.38
35676;BME280;21790;42.668;23.298;2022-11-12T00:35:05;96025.31;;;15.50;50.09
35676;BME280;21790;42.668;23.298;2022-11-12T00:37:30;96026.56;;;15.49;50.27
35676;BME280;21790;42.668;23.298;2022-11-12T00:39:56;96034.75;;;15.44;50.54
35676;BME280;21790;42.668;23.298;2022-11-12T00:42:22;96031.94;;;15.35;50.87
35676;BME280;21790;42.668;23.298;2022-11-12T00:44:47;96025.13;;;15.27;51.10
35676;BME280;21790;42.668;23.298;2022-11-12T00:47:14;96024.38;;;15.44;50.59
35676;BME280;21790;42.668;23.298;2022-11-12T00:49:39;96036.28;;;15.27;50.76
35676;BME280;21790;42.668;23.298;2022-11-12T00:52:05;96026.22;;;15.38;51.07
35676;BME280;21790;42.668;23.298;2022-11-12T00:54:30;96017.41;;;15.31;51.01
35676;BME280;21790;42.668;23.298;2022-11-12T00:56:55;96012.94;;;15.42;50.66
35676;BME280;21790;42.668;23.298;2022-11-12T00:59:21;96013.41;;;15.41;50.55
35676;BME280;21790;42.668;23.298;2022-11-12T01:01:46;96003.97;;;15.47;50.42
35676;BME280;21790;42.668;23.298;2022-11-12T01:04:11;96002.25;;;15.41;51.09
35676;BME280;21790;42.668;23.298;2022-11-12T01:06:40;95993.28;;;15.37;51.38
35676;BME280;21790;42.668;23.298;2022-11-12T01:09:06;95998.97;;;15.33;51.11
35676;BME280;21790;42.668;23.298;2022-11-12T01:11:32;96004.72;;;15.39;50.79
35676;BME280;21790;42.668;23.298;2022-11-12T01:13:58;96009.03;;;15.31;50.93
35676;BME280;21790;42.668;23.298;2022-11-12T01:16:25;95999.31;;;15.35;50.92
35676;BME280;21790;42.668;23.298;2022-11-12T01:18:54;96010.28;;;15.39;51.21
35676;BME280;21790;42.668;23.298;2022-11-12T01:21:21;95997.63;;;15.38;51.00
35676;BME280;21790;42.668;23.298;2022-11-12T01:23:47;96000.69;;;15.31;50.96
35676;BME280;21790;42.668;23.298;2022-11-12T01:26:13;96000.97;;;15.24;50.91
35676;BME280;21790;42.668;23.298;2022-11-12T01:28:40;96001.13;;;15.29;50.84
35676;BME280;21790;42.668;23.298;2022-11-12T01:31:09;96001.75;;;15.24;51.00
35676;BME280;21790;42.668;23.298;2022-11-12T01:33:34;96001.47;;;15.31;50.90
35676;BME280;21790;42.668;23.298;2022-11-12T01:35:59;95990.16;;;15.26;51.21
35676;BME280;21790;42.668;23.298;2022-11-12T01:38:25;95994.50;;;15.27;51.17
35676;BME280;21790;42.668;23.298;2022-11-12T01:40:50;95991.56;;;15.30;50.62
35676;BME280;21790;42.668;23.298;2022-11-12T01:43:15;95985.97;;;15.21;50.72
35676;BME280;21790;42.668;23.298;2022-11-12T01:45:42;95981.75;;;15.17;51.02
35676;BME280;21790;42.668;23.298;2022-11-12T01:48:11;95983.63;;;15.20;51.08
35676;BME280;21790;42.668;23.298;2022-11-12T01:50:44;95983.34;;;15.27;50.96
35676;BME280;21790;42.668;23.298;2022-11-12T01:53:09;95979.31;;;15.28;50.94
35676;BME280;21790;42.668;23.298;2022-11-12T01:55:36;95980.69;;;15.23;51.36
35676;BME280;21790;42.668;23.298;2022-11-12T01:58:09;95987.66;;;15.19;51.31
35676;BME280;21790;42.668;23.298;2022-11-12T02:00:36;95982.28;;;15.42;50.52
35676;BME280;21790;42.668;23.298;2022-11-12T02:03:02;95978.84;;;15.29;51.01
35676;BME280;21790;42.668;23.298;2022-11-12T02:05:29;95969.28;;;15.39;50.73
35676;BME280;21790;42.668;23.298;2022-11-12T02:07:55;95981.03;;;15.25;50.91
35676;BME280;21790;42.668;23.298;2022-11-12T02:10:22;95982.25;;;15.33;50.43
35676;BME280;21790;42.668;23.298;2022-11-12T02:12:47;95979.63;;;15.39;50.51
35676;BME280;21790;42.668;23.298;2022-11-12T02:15:33;95966.19;;;15.37;50.62
35676;BME280;21790;42.668;23.298;2022-11-12T02:17:59;95972.84;;;15.40;50.26
35676;BME280;21790;42.668;23.298;2022-11-12T02:20:25;95990.00;;;15.38;50.69
35676;BME280;21790;42.668;23.298;2022-11-12T02:22:50;95983.97;;;15.40;50.58
35676;BME280;21790;42.668;23.298;2022-11-12T02:25:16;95985.03;;;15.33;51.34
35676;BME280;21790;42.668;23.298;2022-11-12T02:27:43;95980.88;;;15.29;51.40
35676;BME280;21790;42.668;23.298;2022-11-12T02:30:08;95976.84;;;15.39;51.14
35676;BME280;21790;42.668;23.298;2022-11-12T02:32:34;95983.09;;;15.61;49.86
35676;BME280;21790;42.668;23.298;2022-11-12T02:34:59;95987.00;;;15.64;49.54
35676;BME280;21790;42.668;23.298;2022-11-12T02:37:24;95985.59;;;15.68;49.36
35676;BME280;21790;42.668;23.298;2022-11-12T02:39:50;95991.63;;;15.67;49.26
35676;BME280;21790;42.668;23.298;2022-11-12T02:42:15;95987.47;;;15.80;48.75
35676;BME280;21790;42.668;23.298;2022-11-12T02:44:40;95984.38;;;15.69;48.59
35676;BME280;21790;42.668;23.298;2022-11-12T02:47:06;95979.56;;;15.79;47.76
35676;BME280;21790;42.668;23.298;2022-11-12T02:49:31;95980.03;;;15.86;47.48
35676;BME280;21790;42.668;23.298;2022-11-12T02:51:56;95984.22;;;15.91;46.92
35676;BME280;21790;42.668;23.298;2022-11-12T02:54:22;95974.28;;;15.90;47.09
35676;BME280;21790;42.668;23.298;2022-11-12T02:56:47;95980.16;;;15.83;47.27
35676;BME280;21790;42.668;23.298;2022-11-12T02:59:12;95979.72;;;15.75;47.41
35676;BME280;21790;42.668;23.298;2022-11-12T03:01:38;95976.00;;;15.78;47.31
35676;BME280;21790;42.668;23.298;2022-11-12T03:04:03;95972.91;;;15.85;47.21
35676;BME280;21790;42.668;23.298;2022-11-12T03:06:28;95970.06;;;15.40;47.75
35676;BME280;21790;42.668;23.298;2022-11-12T03:08:54;95971.50;;;15.72;46.98
35676;BME280;21790;42.668;23.298;2022-11-12T03:11:19;95971.97;;;15.70;47.09
35676;BME280;21790;42.668;23.298;2022-11-12T03:13:44;95966.53;;;15.67;47.33
35676;BME280;21790;42.668;23.298;2022-11-12T03:16:09;95975.66;;;15.49;47.64
35676;BME280;21790;42.668;23.298;2022-11-12T03:18:35;95975.16;;;15.41;47.97
35676;BME280;21790;42.668;23.298;2022-11-12T03:21:01;95980.47;;;15.58;47.71
35676;BME280;21790;42.668;23.298;2022-11-12T03:23:27;95981.34;;;15.45;48.18
35676;BME280;21790;42.668;23.298;2022-11-12T03:25:52;95985.28;;;15.66;47.15
35676;BME280;21790;42.668;23.298;2022-11-12T03:28:18;95991.63;;;15.58;47.35
35676;BME280;21790;42.668;23.298;2022-11-12T03:30:43;95996.91;;;15.65;47.34
35676;BME280;21790;42.668;23.298;2022-11-12T03:33:09;95986.06;;;15.76;46.71
35676;BME280;21790;42.668;23.298;2022-11-12T03:35:35;95987.44;;;15.89;46.19
35676;BME280;21790;42.668;23.298;2022-11-12T03:38:00;95985.75;;;15.83;46.48
35676;BME280;21790;42.668;23.298;2022-11-12T03:40:26;95981.88;;;15.89;46.16
35676;BME280;21790;42.668;23.298;2022-11-12T03:42:52;95978.63;;;15.91;46.06
35676;BME280;21790;42.668;23.298;2022-11-12T03:45:18;95980.34;;;15.70;46.64
35676;BME280;21790;42.668;23.298;2022-11-12T03:47:45;95979.53;;;15.61;47.08
35676;BME280;21790;42.668;23.298;2022-11-12T03:50:11;95980.44;;;15.48;47.49
35676;BME280;21790;42.668;23.298;2022-11-12T03:52:37;95975.94;;;15.42;47.27
35676;BME280;21790;42.668;23.298;2022-11-12T03:55:03;95977.56;;;15.70;46.62
35676;BME280;21790;42.668;23.298;2022-11-12T03:57:28;95971.22;;;15.70;46.52
35676;BME280;21790;42.668;23.298;2022-11-12T03:59:54;95989.16;;;15.60;46.56
35676;BME280;21790;42.668;23.298;2022-11-12T04:02:19;95984.19;;;15.73;45.99
35676;BME280;21790;42.668;23.298;2022-11-12T04:04:44;95977.41;;;15.65;46.21
35676;BME280;21790;42.668;23.298;2022-11-12T04:07:28;95976.09;;;15.38;47.38
35676;BME280;21790;42.668;23.298;2022-11-12T04:10:12;95981.56;;;15.60;46.99
35676;BME280;21790;42.668;23.298;2022-11-12T04:12:37;95980.19;;;15.74;46.20
35676;BME280;21790;42.668;23.298;2022-11-12T04:15:21;95973.03;;;15.82;45.81
35676;BME280;21790;42.668;23.298;2022-11-12T04:17:47;95975.22;;;15.87;45.62
35676;BME280;21790;42.668;23.298;2022-11-12T04:20:31;95972.13;;;15.85;45.45
35676;BME280;21790;42.668;23.298;2022-11-12T04:23:15;95964.56;;;15.76;45.54
35676;BME280;21790;42.668;23.298;2022-11-12T04:25:40;95971.81;;;15.74;45.72
35676;BME280;21790;42.668;23.298;2022-11-12T04:28:24;95965.47;;;15.64;45.71
35676;BME280;21790;42.668;23.298;2022-11-12T04:30:49;95954.47;;;15.52;46.19
35676;BME280;21790;42.668;23.298;2022-11-12T04:33:15;95956.25;;;15.18;47.37
35676;BME280;21790;42.668;23.298;2022-11-12T04:35:40;95957.63;;;15.14;47.38
35676;BME280;21790;42.668;23.298;2022-11-12T04:38:05;95967.50;;;14.96;47.81
35676;BME280;21790;42.668;23.298;2022-11-12T04:40:30;95964.25;;;14.98;47.52
35676;BME280;21790;42.668;23.298;2022-11-12T04:43:15;95955.13;;;14.97;47.08
35676;BME280;21790;42.668;23.298;2022-11-12T04:46:00;95959.31;;;15.02;46.86
35676;BME280;21790;42.668;23.298;2022-11-12T04:48:25;95953.28;;;14.94;47.45
35676;BME280;21790;42.668;23.298;2022-11-12T04:50:52;95961.75;;;14.91;47.03
35676;BME280;21790;42.668;23.298;2022-11-12T04:53:18;95965.91;;;14.86;47.36
35676;BME280;21790;42.668;23.298;2022-11-12T04:55:44;95969.13;;;14.76;47.75
35676;BME280;21790;42.668;23.298;2022-11-12T04:58:09;95981.19;;;14.73;47.84
35676;BME280;21790;42.668;23.298;2022-11-12T05:00:34;95977.25;;;14.61;48.26
35676;BME280;21790;42.668;23.298;2022-11-12T05:03:00;95974.25;;;14.77;48.10
35676;BME280;21790;42.668;23.298;2022-11-12T05:05:25;95977.19;;;14.83;47.54
35676;BME280;21790;42.668;23.298;2022-11-12T05:07:50;95979.03;;;14.77;47.23
35676;BME280;21790;42.668;23.298;2022-11-12T05:10:16;95982.50;;;14.99;46.67
35676;BME280;21790;42.668;23.298;2022-11-12T05:12:41;95982.88;;;15.19;45.66
35676;BME280;21790;42.668;23.298;2022-11-12T05:15:07;95987.53;;;15.31;45.01
35676;BME280;21790;42.668;23.298;2022-11-12T05:17:32;95985.97;;;15.30;44.78
35676;BME280;21790;42.668;23.298;2022-11-12T05:19:58;95997.44;;;15.32;44.52
35676;BME280;21790;42.668;23.298;2022-11-12T05:22:23;95999.03;;;15.52;44.21
35676;BME280;21790;42.668;23.298;2022-11-12T05:24:48;95994.22;;;15.43;44.08
35676;BME280;21790;42.668;23.298;2022-11-12T05:27:14;95996.34;;;15.39;44.31
35676;BME280;21790;42.668;23.298;2022-11-12T05:29:40;96003.94;;;15.29;44.70
35676;BME280;21790;42.668;23.298;2022-11-12T05:32:06;95994.34;;;15.30;44.70
35676;BME280;21790;42.668;23.298;2022-11-12T05:34:31;96003.63;;;15.36;44.19
35676;BME280;21790;42.668;23.298;2022-11-12T05:36:57;95998.19;;;15.24;45.09
35676;BME280;21790;42.668;23.298;2022-11-12T05:39:22;95998.19;;;15.33;44.56
35676;BME280;21790;42.668;23.298;2022-11-12T05:41:49;96003.16;;;15.29;44.34
35676;BME280;21790;42.668;23.298;2022-11-12T05:44:14;96000.84;;;15.27;44.31
35676;BME280;21790;42.668;23.298;2022-11-12T05:46:40;96001.47;;;15.31;44.19
35676;BME280;21790;42.668;23.298;2022-11-12T05:49:05;96011.09;;;15.48;43.46
35676;BME280;21790;42.668;23.298;2022-11-12T05:51:30;96009.38;;;15.51;43.62
35676;BME280;21790;42.668;23.298;2022-11-12T05:53:56;96004.25;;;15.31;43.71
35676;BME280;21790;42.668;23.298;2022-11-12T05:56:21;96009.38;;;15.42;43.74
35676;BME280;21790;42.668;23.298;2022-11-12T05:58:47;96015.00;;;15.60;43.57
35676;BME280;21790;42.668;23.298;2022-11-12T06:01:12;96018.69;;;15.48;43.95
35676;BME280;21790;42.668;23.298;2022-11-12T06:03:38;96020.28;;;15.58;43.72
35676;BME280;21790;42.668;23.298;2022-11-12T06:06:04;96026.31;;;15.66;43.42
35676;BME280;21790;42.668;23.298;2022-11-12T06:08:29;96022.47;;;15.81;43.18
35676;BME280;21790;42.668;23.298;2022-11-12T06:10:54;96026.63;;;15.95;42.62
35676;BME280;21790;42.668;23.298;2022-11-12T06:13:21;96031.91;;;16.02;42.37
35676;BME280;21790;42.668;23.298;2022-11-12T06:15:46;96029.59;;;16.19;42.21
35676;BME280;21790;42.668;23.298;2022-11-12T06:18:12;96028.31;;;16.38;41.77
35676;BME280;21790;42.668;23.298;2022-11-12T06:20:38;96024.72;;;16.56;41.67
35676;BME280;21790;42.668;23.298;2022-11-12T06:23:03;96030.00;;;16.63;41.83
35676;BME280;21790;42.668;23.298;2022-11-12T06:25:28;96032.44;;;16.79;41.13
35676;BME280;21790;42.668;23.298;2022-11-12T06:27:54;96021.69;;;16.87;40.72
35676;BME280;21790;42.668;23.298;2022-11-12T06:30:19;96026.50;;;16.86;41.01
35676;BME280;21790;42.668;23.298;2022-11-12T06:32:49;96026.97;;;16.94;40.88
35676;BME280;21790;42.668;23.298;2022-11-12T06:35:15;96022.41;;;17.05;40.62
35676;BME280;21790;42.668;23.298;2022-11-12T06:37:41;96014.94;;;17.11;40.35
35676;BME280;21790;42.668;23.298;2022-11-12T06:40:07;96024.47;;;17.29;40.13
35676;BME280;21790;42.668;23.298;2022-11-12T06:42:32;96015.28;;;17.37;39.58
35676;BME280;21790;42.668;23.298;2022-11-12T06:44:59;96031.25;;;17.37;39.58
35676;BME280;21790;42.668;23.298;2022-11-12T06:47:24;96034.00;;;17.46;39.41
35676;BME280;21790;42.668;23.298;2022-11-12T06:49:50;96030.09;;;17.52;39.27
35676;BME280;21790;42.668;23.298;2022-11-12T06:52:16;96034.44;;;17.53;39.10
35676;BME280;21790;42.668;23.298;2022-11-12T06:54:42;96034.44;;;17.53;39.38
35676;BME280;21790;42.668;23.298;2022-11-12T06:57:07;96043.47;;;17.48;39.43
35676;BME280;21790;42.668;23.298;2022-11-12T06:59:33;96034.75;;;17.55;39.43
35676;BME280;21790;42.668;23.298;2022-11-12T07:01:59;96037.88;;;17.15;39.10
35676;BME280;21790;42.668;23.298;2022-11-12T07:04:24;96038.34;;;16.72;39.98
35676;BME280;21790;42.668;23.298;2022-11-12T07:06:50;96034.31;;;16.64;39.98
35676;BME280;21790;42.668;23.298;2022-11-12T07:09:15;96028.03;;;16.36;40.37
35676;BME280;21790;42.668;23.298;2022-11-12T07:11:41;96028.81;;;16.18;40.85
35676;BME280;21790;42.668;23.298;2022-11-12T07:14:07;96042.59;;;15.95;40.90
35676;BME280;21790;42.668;23.298;2022-11-12T07:16:33;96033.44;;;15.94;41.03
35676;BME280;21790;42.668;23.298;2022-11-12T07:18:58;96031.28;;;16.16;40.09
35676;BME280;21790;42.668;23.298;2022-11-12T07:21:24;96020.88;;;16.26;39.83
35676;BME280;21790;42.668;23.298;2022-11-12T07:23:50;95998.72;;;16.22;39.59
35676;BME280;21790;42.668;23.298;2022-11-12T07:26:21;96035.91;;;16.47;39.63
35676;BME280;21790;42.668;23.298;2022-11-12T07:28:48;96035.94;;;16.01;40.40
35676;BME280;21790;42.668;23.298;2022-11-12T07:31:15;96030.34;;;16.01;39.83
35676;BME280;21790;42.668;23.298;2022-11-12T07:33:41;96036.84;;;16.35;39.41
35676;BME280;21790;42.668;23.298;2022-11-12T07:36:09;96029.88;;;16.21;39.65
35676;BME280;21790;42.668;23.298;2022-11-12T07:38:37;96033.59;;;16.27;39.46
35676;BME280;21790;42.668;23.298;2022-11-12T07:41:19;96025.97;;;16.37;39.24
35676;BME280;21790;42.668;23.298;2022-11-12T07:43:46;96028.63;;;16.31;39.05
35676;BME280;21790;42.668;23.298;2022-11-12T07:46:19;96032.03;;;16.44;39.14
35676;BME280;21790;42.668;23.298;2022-11-12T07:48:45;96026.75;;;16.37;39.41
35676;BME280;21790;42.668;23.298;2022-11-12T07:51:12;96028.50;;;16.25;39.84
35676;BME280;21790;42.668;23.298;2022-11-12T07:53:38;96027.38;;;16.41;39.48
35676;BME280;21790;42.668;23.298;2022-11-12T07:56:04;96029.25;;;16.35;39.70
35676;BME280;21790;42.668;23.298;2022-11-12T07:58:30;96031.00;;;15.87;40.15
35676;BME280;21790;42.668;23.298;2022-11-12T08:00:56;96032.22;;;15.86;40.16
35676;BME280;21790;42.668;23.298;2022-11-12T08:03:21;96037.16;;;16.00;39.59
35676;BME280;21790;42.668;23.298;2022-11-12T08:05:47;96031.13;;;16.20;39.44
35676;BME280;21790;42.668;23.298;2022-11-12T08:08:12;96046.28;;;16.37;39.36
35676;BME280;21790;42.668;23.298;2022-11-12T08:10:38;96036.53;;;15.69;39.82
35676;BME280;21790;42.668;23.298;2022-11-12T08:13:03;96043.38;;;15.95;39.77
35676;BME280;21790;42.668;23.298;2022-11-12T08:15:29;96039.19;;;16.00;39.81
35676;BME280;21790;42.668;23.298;2022-11-12T08:17:54;96041.50;;;16.28;39.70
35676;BME280;21790;42.668;23.298;2022-11-12T08:20:19;96037.47;;;16.20;39.38
35676;BME280;21790;42.668;23.298;2022-11-12T08:22:45;96037.66;;;16.08;39.53
35676;BME280;21790;42.668;23.298;2022-11-12T08:25:11;96044.59;;;16.21;39.51
35676;BME280;21790;42.668;23.298;2022-11-12T08:27:36;96039.34;;;15.87;39.71
35676;BME280;21790;42.668;23.298;2022-11-12T08:30:02;96035.91;;;15.83;40.06
35676;BME280;21790;42.668;23.298;2022-11-12T08:32:28;96041.81;;;15.94;39.49
35676;BME280;21790;42.668;23.298;2022-11-12T08:34:53;96048.31;;;16.00;39.51
35676;BME280;21790;42.668;23.298;2022-11-12T08:37:18;96055.75;;;15.85;39.44
35676;BME280;21790;42.668;23.298;2022-11-12T08:39:44;96062.56;;;15.75;39.97
35676;BME280;21790;42.668;23.298;2022-11-12T08:42:09;96039.94;;;15.55;40.21
35676;BME280;21790;42.668;23.298;2022-11-12T08:44:34;96045.19;;;15.53;40.60
35676;BME280;21790;42.668;23.298;2022-11-12T08:47:00;96049.88;;;15.92;39.86
35676;BME280;21790;42.668;23.298;2022-11-12T08:49:25;96048.47;;;16.15;39.45
35676;BME280;21790;42.668;23.298;2022-11-12T08:51:50;96053.91;;;15.91;39.67
35676;BME280;21790;42.668;23.298;2022-11-12T08:54:16;96053.28;;;15.96;39.42
35676;BME280;21790;42.668;23.298;2022-11-12T08:56:41;96057.91;;;15.72;40.14
35676;BME280;21790;42.668;23.298;2022-11-12T08:59:06;96053.91;;;16.18;39.56
35676;BME280;21790;42.668;23.298;2022-11-12T09:01:32;96047.72;;;16.14;39.42
35676;BME280;21790;42.668;23.298;2022-11-12T09:03:57;96052.66;;;15.74;39.62
35676;BME280;21790;42.668;23.298;2022-11-12T09:06:22;96046.94;;;16.14;39.22
35676;BME280;21790;42.668;23.298;2022-11-12T09:08:47;96045.19;;;16.53;38.74
35676;BME280;21790;42.668;23.298;2022-11-12T09:11:13;96036.19;;;16.58;38.70
35676;BME280;21790;42.668;23.298;2022-11-12T09:13:38;96051.06;;;16.55;38.45
35676;BME280;21790;42.668;23.298;2022-11-12T09:16:04;96041.97;;;16.36;38.62
35676;BME280;21790;42.668;23.298;2022-11-12T09:18:30;96041.69;;;15.98;39.74
35676;BME280;21790;42.668;23.298;2022-11-12T09:21:03;96044.91;;;16.05;39.20
35676;BME280;21790;42.668;23.298;2022-11-12T09:23:30;96048.94;;;16.41;39.05
35676;BME280;21790;42.668;23.298;2022-11-12T09:25:57;96045.66;;;16.60;38.80
35676;BME280;21790;42.668;23.298;2022-11-12T09:28:23;96039.03;;;16.30;39.25
35676;BME280;21790;42.668;23.298;2022-11-12T09:30:52;96044.44;;;16.61;38.87
35676;BME280;21790;42.668;23.298;2022-11-12T09:33:22;96046.91;;;16.59;38.93
35676;BME280;21790;42.668;23.298;2022-11-12T09:35:49;96048.41;;;16.79;38.20
35676;BME280;21790;42.668;23.298;2022-11-12T09:38:14;96035.41;;;16.48;38.71
35676;BME280;21790;42.668;23.298;2022-11-12T09:43:22;96042.44;;;16.16;39.18
35676;BME280;21790;42.668;23.298;2022-11-12T09:45:50;96039.66;;;16.16;39.48
35676;BME280;21790;42.668;23.298;2022-11-12T09:48:20;96044.44;;;15.79;40.05
35676;BME280;21790;42.668;23.298;2022-11-12T09:50:59;96041.00;;;15.66;40.16
35676;BME280;21790;42.668;23.298;2022-11-12T09:53:43;96042.75;;;15.91;39.96
35676;BME280;21790;42.668;23.298;2022-11-12T09:56:11;96045.38;;;16.13;39.58
35676;BME280;21790;42.668;23.298;2022-11-12T09:58:37;96043.66;;;15.88;40.21
35676;BME280;21790;42.668;23.298;2022-11-12T10:01:05;96044.59;;;16.21;39.55
35676;BME280;21790;42.668;23.298;2022-11-12T10:06:19;96044.59;;;16.21;38.72
35676;BME280;21790;42.668;23.298;2022-11-12T10:14:07;96040.41;;;16.26;38.24
35676;BME280;21790;42.668;23.298;2022-11-12T10:16:45;96043.50;;;16.10;38.76
35676;BME280;21790;42.668;23.298;2022-11-12T10:22:07;96038.09;;;16.15;38.22
35676;BME280;21790;42.668;23.298;2022-11-12T10:24:39;96039.94;;;16.09;38.39
35676;BME280;21790;42.668;23.298;2022-11-12T10:27:14;96043.38;;;15.86;38.80
35676;BME280;21790;42.668;23.298;2022-11-12T10:29:58;96044.41;;;15.61;39.40
35676;BME280;21790;42.668;23.298;2022-11-12T10:32:25;96041.25;;;15.41;40.03
35676;BME280;21790;42.668;23.298;2022-11-12T10:34:51;96047.06;;;15.83;39.35
35676;BME280;21790;42.668;23.298;2022-11-12T10:37:21;96040.25;;;15.93;39.34
35676;BME280;21790;42.668;23.298;2022-11-12T10:39:48;96028.50;;;15.71;39.57
35676;BME280;21790;42.668;23.298;2022-11-12T10:42:16;96042.44;;;16.16;39.00
35676;BME280;21790;42.668;23.298;2022-11-12T10:44:42;96041.50;;;16.01;39.34
35676;BME280;21790;42.668;23.298;2022-11-12T10:47:19;96044.94;;;15.87;39.72
35676;BME280;21790;42.668;23.298;2022-11-12T10:50:03;96037.16;;;16.27;39.19
35676;BME280;21790;42.668;23.298;2022-11-12T10:52:30;96037.31;;;16.24;39.16
35676;BME280;21790;42.668;23.298;2022-11-12T10:55:23;96030.81;;;16.27;39.39
35676;BME280;21790;42.668;23.298;2022-11-12T10:58:17;96038.88;;;16.34;39.60
35676;BME280;21790;42.668;23.298;2022-11-12T11:03:25;96037.47;;;16.39;39.81
35676;BME280;21790;42.668;23.298;2022-11-12T11:05:54;96040.69;;;16.37;39.83
35676;BME280;21790;42.668;23.298;2022-11-12T11:08:44;96046.13;;;16.59;39.39
35676;BME280;21790;42.668;23.298;2022-11-12T11:11:22;96039.31;;;16.69;39.21
35676;BME280;21790;42.668;23.298;2022-11-12T11:13:50;96041.63;;;16.61;39.52
35676;BME280;21790;42.668;23.298;2022-11-12T11:16:27;96032.16;;;16.68;39.45
35676;BME280;21790;42.668;23.298;2022-11-12T11:18:57;96039.63;;;16.53;39.44
35676;BME280;21790;42.668;23.298;2022-11-12T11:27:17;96045.06;;;16.47;39.67
35676;BME280;21790;42.668;23.298;2022-11-12T11:30:08;96034.81;;;16.44;40.02
35676;BME280;21790;42.668;23.298;2022-11-12T11:43:49;96041.47;;;16.56;40.26
35676;BME280;21790;42.668;23.298;2022-11-12T11:46:44;96034.19;;;16.67;40.33
35676;BME280;21790;42.668;23.298;2022-11-12T12:03:21;96038.81;;;16.80;39.71
35676;BME280;21790;42.668;23.298;2022-11-12T12:08:53;96039.53;;;16.89;39.19
35676;BME280;21790;42.668;23.298;2022-11-12T12:20:10;96005.72;;;16.96;39.96
35676;BME280;21790;42.668;23.298;2022-11-12T12:22:49;96009.13;;;16.22;40.68
35676;BME280;21790;42.668;23.298;2022-11-12T12:25:22;95995.81;;;15.89;41.50
35676;BME280;21790;42.668;23.298;2022-11-12T12:30:50;96010.41;;;16.81;41.23
35676;BME280;21790;42.668;23.298;2022-11-12T12:33:31;96009.34;;;16.79;39.90
35676;BME280;21790;42.668;23.298;2022-11-12T12:36:02;96022.19;;;16.76;40.03
35676;BME280;21790;42.668;23.298;2022-11-12T12:43:48;96015.34;;;17.19;39.28
35676;BME280;21790;42.668;23.298;2022-11-12T12:46:19;96013.47;;;17.25;39.23
35676;BME280;21790;42.668;23.298;2022-11-12T12:48:46;96026.41;;;17.13;40.12
35676;BME280;21790;42.668;23.298;2022-11-12T12:51:15;96012.94;;;17.36;39.16
35676;BME280;21790;42.668;23.298;2022-11-12T12:53:41;96017.41;;;17.42;39.03
35676;BME280;21790;42.668;23.298;2022-11-12T12:58:48;96022.00;;;17.54;39.13
35676;BME280;21790;42.668;23.298;2022-11-12T13:08:55;96028.25;;;17.17;40.77
35676;BME280;21790;42.668;23.298;2022-11-12T13:16:57;96024.59;;;16.41;42.09
35676;BME280;21790;42.668;23.298;2022-11-12T13:19:37;96031.88;;;16.39;42.58
35676;BME280;21790;42.668;23.298;2022-11-12T13:43:35;96019.84;;;15.87;45.53
35676;BME280;21790;42.668;23.298;2022-11-12T13:46:28;96036.88;;;15.98;45.79
35676;BME280;21790;42.668;23.298;2022-11-12T13:53:55;96038.56;;;15.96;45.85
35676;BME280;21790;42.668;23.298;2022-11-12T13:58:52;96034.06;;;15.71;46.19
35676;BME280;21790;42.668;23.298;2022-11-12T14:01:22;96025.09;;;15.76;46.68
35676;BME280;21790;42.668;23.298;2022-11-12T14:03:49;96027.22;;;15.63;47.03
35676;BME280;21790;42.668;23.298;2022-11-12T14:14:22;96039.97;;;15.91;45.91
35676;BME280;21790;42.668;23.298;2022-11-12T14:17:16;96038.41;;;15.81;46.31
35676;BME280;21790;42.668;23.298;2022-11-12T14:22:44;96030.81;;;15.72;46.26
35676;BME280;21790;42.668;23.298;2022-11-12T14:25:26;96034.09;;;16.07;45.66
35676;BME280;21790;42.668;23.298;2022-11-12T14:27:54;96026.47;;;15.99;45.56
35676;BME280;21790;42.668;23.298;2022-11-12T14:30:28;96032.84;;;16.08;45.57
35676;BME280;21790;42.668;23.298;2022-11-12T14:33:07;96029.13;;;16.11;45.76
35676;BME280;21790;42.668;23.298;2022-11-12T14:35:37;96041.66;;;15.88;46.15
35676;BME280;21790;42.668;23.298;2022-11-12T14:40:45;96036.41;;;16.00;46.00
35676;BME280;21790;42.668;23.298;2022-11-12T14:43:36;96038.41;;;15.90;46.34
35676;BME280;21790;42.668;23.298;2022-11-12T14:46:04;96038.41;;;15.90;46.32
35676;BME280;21790;42.668;23.298;2022-11-12T14:48:45;96032.34;;;15.64;46.84
35676;BME280;21790;42.668;23.298;2022-11-12T14:51:14;96027.66;;;15.43;47.16
35676;BME280;21790;42.668;23.298;2022-11-12T14:53:56;96024.25;;;15.48;46.97
35676;BME280;21790;42.668;23.298;2022-11-12T14:56:38;96026.34;;;16.02;46.14
35676;BME280;21790;42.668;23.298;2022-11-12T14:59:09;96031.47;;;16.04;46.00
35676;BME280;21790;42.668;23.298;2022-11-12T15:01:38;96025.84;;;15.67;46.89